createdAt,value
2019-04-06T00:00:48.352Z,58.06
2019-04-06T00:03:16.412Z,58.09
2019-04-06T00:05:44.482Z,58.11
2019-04-06T00:08:14.132Z,58.12
2019-04-06T00:10:42.224Z,58.20
2019-04-06T00:13:10.466Z,58.23
2019-04-06T00:15:38.551Z,58.25
2019-04-06T00:18:06.592Z,58.25
2019-04-06T00:20:34.689Z,58.24
2019-04-06T00:23:02.730Z,58.29
2019-04-06T00:25:30.844Z,58.32
2019-04-06T00:27:59.966Z,58.34
2019-04-06T00:30:30.987Z,58.34
2019-04-06T00:33:05.439Z,58.37
2019-04-06T00:35:33.921Z,58.40
2019-04-06T00:38:01.955Z,58.44
2019-04-06T00:40:30.298Z,58.51
2019-04-06T00:42:58.369Z,58.53
2019-04-06T00:45:26.457Z,58.54
2019-04-06T00:47:54.543Z,58.53
2019-04-06T00:50:22.573Z,58.51
2019-04-06T00:52:50.653Z,58.51
2019-04-06T00:55:18.687Z,58.51
2019-04-06T00:57:47.164Z,58.51
2019-04-06T01:00:15.642Z,58.52
2019-04-06T01:02:43.860Z,58.51
2019-04-06T01:05:12.022Z,58.52
2019-04-06T01:07:40.075Z,58.60
2019-04-06T01:10:08.333Z,58.62
2019-04-06T01:12:36.379Z,58.64
2019-04-06T01:15:05.101Z,58.65
2019-04-06T01:17:33.224Z,58.71
2019-04-06T01:20:01.259Z,58.71
2019-04-06T01:22:29.648Z,58.73
2019-04-06T01:24:57.697Z,58.75
2019-04-06T01:27:25.842Z,58.78
2019-04-06T01:29:53.940Z,58.80
2019-04-06T01:32:21.994Z,58.82
2019-04-06T01:34:50.067Z,58.85
2019-04-06T01:37:18.487Z,58.89
2019-04-06T01:39:46.509Z,58.87
2019-04-06T01:42:14.655Z,58.88
2019-04-06T01:44:42.715Z,58.94
2019-04-06T01:47:12.520Z,58.92
2019-04-06T01:49:40.641Z,58.91
2019-04-06T01:52:08.904Z,58.89
2019-04-06T01:54:37.357Z,58.90
2019-04-06T01:57:06.406Z,58.89
2019-04-06T01:59:34.487Z,58.90
2019-04-06T02:02:16.396Z,58.94
2019-04-06T02:04:44.520Z,58.97
2019-04-06T02:07:13.896Z,58.97
2019-04-06T02:09:41.983Z,58.97
2019-04-06T02:12:10.045Z,59.01
2019-04-06T02:14:38.386Z,59.01
2019-04-06T02:17:06.684Z,59.01
2019-04-06T02:19:35.248Z,59.03
2019-04-06T02:22:03.349Z,59.05
2019-04-06T02:24:31.406Z,59.03
2019-04-06T02:26:59.613Z,59.05
2019-04-06T02:29:28.063Z,59.08
2019-04-06T02:32:21.788Z,59.09
2019-04-06T02:35:09.478Z,59.10
2019-04-06T02:38:09.070Z,59.08
2019-04-06T02:41:05.664Z,59.07
2019-04-06T02:43:34.661Z,59.05
2019-04-06T02:46:02.815Z,59.08
2019-04-06T02:48:30.907Z,59.13
2019-04-06T02:50:58.958Z,59.18
2019-04-06T02:53:27.050Z,59.25
2019-04-06T02:55:55.320Z,59.28
2019-04-06T02:58:24.853Z,59.25
2019-04-06T03:00:53.174Z,59.28
2019-04-06T03:03:21.272Z,59.25
2019-04-06T03:05:49.594Z,59.24
2019-04-06T03:08:17.794Z,59.25
2019-04-06T03:10:45.859Z,59.28
2019-04-06T03:13:14.933Z,59.26
2019-04-06T03:15:43.286Z,59.26
2019-04-06T03:18:11.387Z,59.28
2019-04-06T03:20:39.418Z,59.30
2019-04-06T03:23:07.517Z,59.31
2019-04-06T03:25:36.669Z,59.31
2019-04-06T03:28:04.794Z,59.32
2019-04-06T03:30:32.851Z,59.33
2019-04-06T03:33:01.191Z,59.39
2019-04-06T03:35:29.617Z,59.44
2019-04-06T03:37:57.875Z,59.43
2019-04-06T03:40:25.889Z,59.44
2019-04-06T03:42:54.014Z,59.46
2019-04-06T03:45:22.059Z,59.46
2019-04-06T03:47:50.101Z,59.45
2019-04-06T03:50:18.148Z,59.46
2019-04-06T03:52:47.225Z,59.48
2019-04-06T03:55:15.271Z,59.52
2019-04-06T03:57:43.381Z,59.53
2019-04-06T04:00:11.736Z,59.56
2019-04-06T04:02:40.034Z,59.59
2019-04-06T04:05:08.568Z,59.57
2019-04-06T04:07:36.732Z,59.60
2019-04-06T04:10:06.098Z,59.57
2019-04-06T04:12:34.198Z,59.59
2019-04-06T04:15:03.147Z,59.63
2019-04-06T04:17:31.171Z,59.63
2019-04-06T04:19:59.337Z,59.65
2019-04-06T04:22:27.838Z,59.67
2019-04-06T04:24:55.968Z,59.68
2019-04-06T04:27:29.639Z,59.69
2019-04-06T04:29:54.575Z,59.69
2019-04-06T04:32:22.670Z,59.69
2019-04-06T04:34:50.996Z,59.74
2019-04-06T04:37:19.142Z,59.73
2019-04-06T04:39:47.575Z,59.72
2019-04-06T04:42:15.823Z,59.71
2019-04-06T04:44:43.973Z,59.71
2019-04-06T04:47:13.567Z,59.75
2019-04-06T04:49:41.702Z,59.74
2019-04-06T04:52:09.756Z,59.75
2019-04-06T04:54:38.274Z,59.74
2019-04-06T04:57:06.306Z,59.74
2019-04-06T04:59:34.419Z,59.74
2019-04-06T05:02:04.820Z,59.76
2019-04-06T05:04:33.227Z,59.73
2019-04-06T05:07:01.375Z,59.73
2019-04-06T05:09:29.535Z,59.77
2019-04-06T05:11:58.105Z,59.84
2019-04-06T05:15:00.679Z,59.89
2019-04-06T05:17:29.025Z,59.89
2019-04-06T05:19:57.241Z,59.89
2019-04-06T05:22:25.518Z,59.91
2019-04-06T05:24:53.624Z,59.93
2019-04-06T05:27:21.705Z,59.98
2019-04-06T05:29:49.787Z,59.99
2019-04-06T05:32:17.831Z,60.00
2019-04-06T05:34:45.938Z,60.02
2019-04-06T05:37:15.394Z,60.02
2019-04-06T05:39:43.795Z,60.04
2019-04-06T05:42:11.886Z,60.03
2019-04-06T05:44:39.948Z,60.08
2019-04-06T05:47:08.012Z,60.09
2019-04-06T05:49:36.104Z,60.07
2019-04-06T05:52:04.193Z,60.07
2019-04-06T05:54:32.296Z,60.08
2019-04-06T05:57:00.566Z,60.11
2019-04-06T05:59:28.738Z,60.12
2019-04-06T06:01:57.115Z,60.14
2019-04-06T06:04:25.200Z,60.15
2019-04-06T06:06:53.241Z,60.17
2019-04-06T06:09:21.335Z,60.20
2019-04-06T06:11:49.704Z,60.22
2019-04-06T06:14:17.808Z,60.23
2019-04-06T06:16:45.834Z,60.27
2019-04-06T06:19:15.231Z,60.31
2019-04-06T06:21:43.273Z,60.31
2019-04-06T06:24:11.371Z,60.34
2019-04-06T06:26:39.797Z,60.35
2019-04-06T06:29:07.887Z,60.39
2019-04-06T06:31:35.946Z,60.42
2019-04-06T06:34:04.538Z,60.45
2019-04-06T06:36:32.639Z,60.50
2019-04-06T06:39:00.702Z,60.48
2019-04-06T06:41:28.812Z,60.52
2019-04-06T06:43:56.863Z,60.51
2019-04-06T06:46:24.928Z,60.49
2019-04-06T06:48:53.084Z,60.40
2019-04-06T06:51:21.258Z,60.31
2019-04-06T06:53:49.685Z,60.22
2019-04-06T06:56:17.829Z,60.15
2019-04-06T06:58:45.910Z,60.09
2019-04-06T07:01:16.762Z,60.06
2019-04-06T07:03:44.843Z,60.01
2019-04-06T07:06:12.927Z,59.95
2019-04-06T07:08:41.015Z,59.89
2019-04-06T07:11:09.519Z,59.82
2019-04-06T07:13:37.972Z,59.69
2019-04-06T07:16:06.101Z,59.53
2019-04-06T07:18:34.163Z,59.40
2019-04-06T07:21:02.215Z,59.26
2019-04-06T07:23:30.285Z,59.04
2019-04-06T07:25:59.107Z,58.88
2019-04-06T07:28:37.087Z,58.65
2019-04-06T07:30:57.422Z,58.57
2019-04-06T07:33:25.530Z,58.38
2019-04-06T07:35:53.667Z,58.22
2019-04-06T07:38:22.185Z,58.16
2019-04-06T07:40:50.312Z,58.06
2019-04-06T07:43:18.423Z,57.85
2019-04-06T07:45:46.498Z,57.63
2019-04-06T07:48:14.615Z,57.43
2019-04-06T07:50:42.815Z,57.19
2019-04-06T07:53:10.885Z,56.94
2019-04-06T07:55:39.057Z,56.77
2019-04-06T07:58:07.489Z,56.59
2019-04-06T08:00:35.888Z,56.25
2019-04-06T08:03:08.971Z,55.90
2019-04-06T08:05:37.165Z,55.65
2019-04-06T08:08:05.394Z,55.31
2019-04-06T08:10:35.894Z,55.03
2019-04-06T08:13:06.630Z,54.80
2019-04-06T08:15:35.397Z,54.60
2019-04-06T08:18:03.976Z,54.45
2019-04-06T08:20:32.579Z,54.17
2019-04-06T08:23:01.354Z,53.89
2019-04-06T08:25:31.302Z,53.70
2019-04-06T08:27:59.658Z,53.54
2019-04-06T08:30:32.251Z,53.49
2019-04-06T08:33:05.009Z,53.51
2019-04-06T08:35:35.798Z,53.33
2019-04-06T08:38:05.468Z,53.11
2019-04-06T08:40:35.698Z,52.84
2019-04-06T08:43:04.449Z,52.61
2019-04-06T08:45:34.304Z,52.43
2019-04-06T08:48:02.411Z,52.27
2019-04-06T08:50:30.835Z,52.15
2019-04-06T08:52:58.964Z,52.06
2019-04-06T08:55:27.082Z,51.96
2019-04-06T08:57:55.605Z,51.77
2019-04-06T09:00:23.705Z,51.59
2019-04-06T09:02:52.209Z,51.35
2019-04-06T09:05:20.344Z,51.12
2019-04-06T09:07:48.419Z,51.17
2019-04-06T09:10:16.496Z,51.16
2019-04-06T09:12:44.631Z,51.08
2019-04-06T09:15:17.402Z,50.87
2019-04-06T09:17:45.661Z,50.70
2019-04-06T09:20:13.729Z,50.51
2019-04-06T09:22:41.843Z,50.19
2019-04-06T09:25:10.243Z,50.15
2019-04-06T09:27:38.655Z,50.16
2019-04-06T09:30:07.114Z,50.01
2019-04-06T09:32:35.240Z,50.07
2019-04-06T09:35:03.890Z,50.01
2019-04-06T09:37:32.162Z,50.03
2019-04-06T09:40:00.624Z,50.21
2019-04-06T09:42:28.808Z,50.31
2019-04-06T09:45:09.475Z,50.50
2019-04-06T09:48:02.779Z,50.59
2019-04-06T09:50:49.104Z,50.73
2019-04-06T09:53:39.162Z,50.90
2019-04-06T09:56:25.099Z,51.02
2019-04-06T09:59:04.120Z,50.99
2019-04-06T10:01:44.775Z,51.03
2019-04-06T10:04:44.629Z,50.90
2019-04-06T10:07:22.838Z,50.88
2019-04-06T10:10:28.971Z,51.05
2019-04-06T10:13:19.767Z,51.13
2019-04-06T10:16:08.407Z,51.13
2019-04-06T10:19:06.014Z,51.05
2019-04-06T10:22:02.926Z,51.07
2019-04-06T10:25:02.491Z,51.04
2019-04-06T10:27:42.270Z,50.98
2019-04-06T10:30:29.072Z,51.10
2019-04-06T10:33:03.607Z,51.17
2019-04-06T10:35:47.970Z,51.22
2019-04-06T10:38:41.561Z,51.14
2019-04-06T10:41:29.331Z,51.07
2019-04-06T10:44:20.027Z,51.18
2019-04-06T10:46:54.124Z,51.13
2019-04-06T10:49:37.727Z,51.00
2019-04-06T10:52:28.184Z,50.90
2019-04-06T10:55:20.874Z,50.66
2019-04-06T10:58:20.879Z,50.50
2019-04-06T11:01:12.433Z,50.34
2019-04-06T11:03:46.484Z,50.34
2019-04-06T11:06:37.389Z,50.29
2019-04-06T11:09:17.879Z,50.12
2019-04-06T11:12:14.523Z,50.00
2019-04-06T11:15:14.124Z,49.86
2019-04-06T11:17:58.743Z,49.72
2019-04-06T11:20:55.892Z,49.64
2019-04-06T11:23:46.405Z,49.55
2019-04-06T11:26:30.228Z,49.50
2019-04-06T11:29:13.565Z,49.43
2019-04-06T11:31:47.653Z,49.20
2019-04-06T11:34:41.981Z,49.02
2019-04-06T11:37:21.518Z,48.93
2019-04-06T11:40:04.123Z,48.81
2019-04-06T11:42:53.823Z,48.88
2019-04-06T11:45:41.588Z,48.93
2019-04-06T11:48:35.401Z,48.88
2019-04-06T11:51:35.196Z,48.72
2019-04-06T11:54:41.168Z,48.65
2019-04-06T11:57:16.464Z,48.56
2019-04-06T12:00:03.664Z,48.47
2019-04-06T12:02:42.185Z,48.17
2019-04-06T12:05:18.126Z,47.85
2019-04-06T12:08:19.095Z,47.42
2019-04-06T12:11:09.996Z,47.12
2019-04-06T12:14:07.113Z,46.92
2019-04-06T12:16:54.915Z,46.55
2019-04-06T12:19:28.736Z,46.35
2019-04-06T12:22:34.510Z,46.01
2019-04-06T12:25:15.969Z,45.65
2019-04-06T12:28:12.323Z,45.48
2019-04-06T12:31:10.242Z,45.20
2019-04-06T12:34:03.979Z,45.05
2019-04-06T12:36:50.218Z,44.86
2019-04-06T12:39:32.689Z,44.65
2019-04-06T12:42:12.095Z,44.34
2019-04-06T12:45:08.369Z,44.15
2019-04-06T12:48:13.923Z,43.96
2019-04-06T12:51:00.544Z,43.72
2019-04-06T12:53:47.034Z,43.61
2019-04-06T12:56:22.949Z,43.41
2019-04-06T12:59:09.135Z,43.24
2019-04-06T13:01:56.961Z,43.03
2019-04-06T13:04:59.993Z,42.81
2019-04-06T13:07:43.206Z,42.57
2019-04-06T13:10:32.157Z,42.30
2019-04-06T13:13:10.534Z,42.06
2019-04-06T13:15:47.658Z,41.87
2019-04-06T13:18:42.057Z,41.64
2019-04-06T13:21:45.115Z,41.49
2019-04-06T13:24:27.707Z,41.54
2019-04-06T13:27:22.014Z,41.67
2019-04-06T13:30:08.012Z,41.60
2019-04-06T13:32:54.255Z,41.69
2019-04-06T13:35:43.314Z,41.59
2019-04-06T13:38:35.594Z,41.65
2019-04-06T13:41:35.293Z,41.75
2019-04-06T13:44:12.760Z,41.84
2019-04-06T13:47:10.132Z,41.90
2019-04-06T13:49:56.729Z,41.96
2019-04-06T13:52:35.976Z,42.13
2019-04-06T13:55:24.753Z,42.15
2019-04-06T13:58:12.413Z,42.01
2019-04-06T14:01:18.940Z,41.97
2019-04-06T14:04:06.701Z,42.14
2019-04-06T14:07:04.205Z,42.38
2019-04-06T14:10:05.412Z,42.41
2019-04-06T14:12:53.499Z,42.41
2019-04-06T14:15:53.459Z,42.35
2019-04-06T14:18:42.463Z,42.39
2019-04-06T14:21:30.281Z,42.30
2019-04-06T14:24:24.273Z,42.30
2019-04-06T14:27:06.566Z,42.24
2019-04-06T14:30:00.402Z,42.25
2019-04-06T14:32:48.737Z,42.23
2019-04-06T14:35:42.288Z,42.21
2019-04-06T14:38:29.308Z,42.11
2019-04-06T14:41:21.949Z,42.03
2019-04-06T14:44:17.577Z,42.08
2019-04-06T14:46:55.525Z,42.08
2019-04-06T14:49:40.429Z,42.13
2019-04-06T14:52:14.627Z,42.15
2019-04-06T14:55:05.694Z,42.04
2019-04-06T14:57:59.510Z,42.05
2019-04-06T15:00:44.256Z,42.06
2019-04-06T15:03:43.966Z,42.06
2019-04-06T15:06:30.704Z,42.09
2019-04-06T15:09:23.951Z,42.15
2019-04-06T15:12:14.861Z,42.16
2019-04-06T15:15:04.436Z,42.23
2019-04-06T15:17:55.493Z,42.31
2019-04-06T15:20:39.606Z,42.37
2019-04-06T15:23:37.337Z,42.46
2019-04-06T15:26:41.940Z,42.55
2019-04-06T15:29:45.299Z,42.59
2019-04-06T15:32:31.689Z,42.69
2019-04-06T15:35:22.213Z,42.81
2019-04-06T15:38:08.495Z,42.92
2019-04-06T15:40:56.208Z,43.02
2019-04-06T15:43:42.785Z,43.03
2019-04-06T15:46:30.070Z,43.13
2019-04-06T15:49:16.717Z,43.23
2019-04-06T15:51:52.446Z,43.37
2019-04-06T15:54:46.050Z,43.45
2019-04-06T15:57:34.857Z,43.51
2019-04-06T16:00:13.818Z,43.53
2019-04-06T16:03:16.897Z,43.56
2019-04-06T16:16:14.459Z,44.08
2019-04-06T16:19:02.303Z,44.07
2019-04-06T16:21:53.394Z,44.06
2019-04-06T16:24:47.041Z,44.11
2019-04-06T16:27:40.626Z,44.14
2019-04-06T16:30:31.842Z,44.15
2019-04-06T16:33:09.073Z,44.17
2019-04-06T16:36:00.916Z,44.21
2019-04-06T16:38:52.386Z,44.20
2019-04-06T16:41:49.152Z,44.18
2019-04-06T16:44:27.312Z,44.22
2019-04-06T16:47:05.142Z,44.30
2019-04-06T16:49:48.990Z,44.29
2019-04-06T16:52:39.723Z,44.29
2019-04-06T16:55:27.565Z,44.23
2019-04-06T16:58:14.733Z,44.22
2019-04-06T17:00:52.508Z,44.25
2019-04-06T17:03:39.186Z,44.22
2019-04-06T17:06:33.211Z,44.27
2019-04-06T17:09:27.074Z,44.30
2019-04-06T17:12:19.302Z,44.33
2019-04-06T17:15:22.339Z,44.35
2019-04-06T17:18:31.794Z,44.34
2019-04-06T17:21:22.900Z,44.37
2019-04-06T17:24:14.247Z,44.43
2019-04-06T17:27:11.556Z,44.48
2019-04-06T17:29:59.623Z,44.50
2019-04-06T17:32:40.296Z,44.49
2019-04-06T17:35:24.433Z,44.50
2019-04-06T17:38:06.003Z,44.48
2019-04-06T17:40:45.075Z,44.48
2019-04-06T17:43:40.345Z,44.49
2019-04-06T17:46:27.087Z,44.47
2019-04-06T17:49:24.028Z,44.51
2019-04-06T17:52:12.161Z,44.56
2019-04-06T17:54:59.416Z,44.60
2019-04-06T17:57:38.444Z,44.66
2019-04-06T18:00:34.242Z,44.70
2019-04-06T18:03:13.769Z,44.75
2019-04-06T18:06:03.207Z,44.80
2019-04-06T18:08:48.569Z,44.84
2019-04-06T18:11:38.955Z,44.87
2019-04-06T18:14:07.692Z,44.92
2019-04-06T18:16:36.442Z,44.96
2019-04-06T18:19:04.971Z,44.99
2019-04-06T18:21:33.364Z,44.98
2019-04-06T18:24:01.494Z,45.02
2019-04-06T18:26:29.683Z,45.07
2019-04-06T18:28:57.818Z,45.14
2019-04-06T18:31:54.993Z,45.23
2019-04-06T18:34:23.912Z,45.41
2019-04-06T18:37:17.319Z,45.51
2019-04-06T18:40:00.891Z,45.59
2019-04-06T18:42:28.988Z,45.63
2019-04-06T18:44:57.131Z,45.68
2019-04-06T18:47:25.713Z,45.76
2019-04-06T18:49:54.078Z,45.88
2019-04-06T18:52:22.283Z,45.97
2019-04-06T18:54:50.637Z,46.08
2019-04-06T18:57:18.674Z,46.27
2019-04-06T18:59:47.055Z,46.40
2019-04-06T19:02:16.392Z,46.46
2019-04-06T19:04:44.836Z,46.49
2019-04-06T19:07:13.060Z,46.54
2019-04-06T19:09:41.172Z,46.58
2019-04-06T19:12:21.616Z,46.60
2019-04-06T19:14:50.039Z,46.67
2019-04-06T19:17:18.759Z,46.71
2019-04-06T19:19:46.899Z,46.78
2019-04-06T19:22:15.972Z,46.85
2019-04-06T19:24:44.493Z,46.95
2019-04-06T19:27:12.751Z,47.04
2019-04-06T19:29:40.918Z,47.12
2019-04-06T19:32:09.201Z,47.19
2019-04-06T19:34:37.594Z,47.28
2019-04-06T19:37:08.493Z,47.36
2019-04-06T19:39:36.566Z,47.49
2019-04-06T19:42:13.290Z,47.61
2019-04-06T19:44:41.822Z,47.71
2019-04-06T19:47:10.243Z,47.72
2019-04-06T19:49:38.902Z,47.78
2019-04-06T19:52:07.357Z,47.83
2019-04-06T19:54:35.966Z,47.90
2019-04-06T19:57:04.215Z,48.00
2019-04-06T19:59:32.425Z,48.11
2019-04-06T20:02:00.759Z,48.28
2019-04-06T20:04:29.057Z,48.45
2019-04-06T20:06:57.074Z,48.59
2019-04-06T20:09:25.305Z,48.72
2019-04-06T20:12:04.395Z,48.80
2019-04-06T20:14:23.547Z,48.87
2019-04-06T20:16:51.651Z,48.92
2019-04-06T20:19:22.411Z,48.96
2019-04-06T20:21:50.374Z,49.04
2019-04-06T20:24:18.443Z,49.13
2019-04-06T20:26:46.531Z,49.23
2019-04-06T20:29:14.678Z,49.32
2019-04-06T20:31:42.907Z,49.42
2019-04-06T20:34:10.907Z,49.47
2019-04-06T20:36:39.733Z,49.47
2019-04-06T20:39:08.838Z,49.49
2019-04-06T20:41:39.152Z,49.55
2019-04-06T20:44:08.633Z,49.58
2019-04-06T20:46:37.688Z,49.62
2019-04-06T20:49:06.653Z,49.68
2019-04-06T20:51:34.637Z,49.73
2019-04-06T20:54:02.871Z,49.78
2019-04-06T20:56:31.457Z,49.81
2019-04-06T20:58:59.767Z,49.86
2019-04-06T21:01:27.763Z,49.87
2019-04-06T21:04:01.007Z,49.92
2019-04-06T21:06:26.011Z,50.00
2019-04-06T21:08:54.264Z,50.10
2019-04-06T21:11:24.681Z,50.19
2019-04-06T21:13:52.879Z,50.24
2019-04-06T21:16:21.020Z,50.33
2019-04-06T21:18:49.128Z,50.41
2019-04-06T21:21:18.945Z,50.46
2019-04-06T21:23:47.496Z,50.52
2019-04-06T21:26:16.105Z,50.60
2019-04-06T21:28:44.626Z,50.69
2019-04-06T21:31:12.699Z,50.77
2019-04-06T21:33:40.817Z,50.86
2019-04-06T21:36:09.564Z,50.94
2019-04-06T21:38:37.726Z,51.00
2019-04-06T21:41:05.857Z,51.06
2019-04-06T21:43:34.391Z,51.14
2019-04-06T21:46:02.515Z,51.17
2019-04-06T21:48:31.361Z,51.23
2019-04-06T21:51:00.124Z,51.27
2019-04-06T21:53:29.119Z,51.28
2019-04-06T21:56:03.256Z,51.34
2019-04-06T21:58:27.692Z,51.36
2019-04-06T22:00:56.714Z,51.39
2019-04-06T22:03:24.995Z,51.46
2019-04-06T22:05:53.331Z,51.51
2019-04-06T22:08:23.148Z,51.56
2019-04-06T22:10:51.310Z,51.61
2019-04-06T22:13:19.543Z,51.65
2019-04-06T22:15:47.798Z,51.74
2019-04-06T22:18:15.858Z,51.81
2019-04-06T22:20:44.026Z,51.87
2019-04-06T22:23:12.067Z,51.93
2019-04-06T22:25:40.029Z,51.98
2019-04-06T22:28:08.665Z,52.05
2019-04-06T22:30:38.355Z,52.10
2019-04-06T22:33:06.660Z,52.12
2019-04-06T22:35:34.990Z,52.14
2019-04-06T22:38:03.146Z,52.19
2019-04-06T22:40:31.426Z,52.21
2019-04-06T22:42:59.916Z,52.23
2019-04-06T22:45:28.904Z,52.24
2019-04-06T22:47:57.502Z,52.30
2019-04-06T22:50:27.103Z,52.37
2019-04-06T22:52:55.147Z,52.39
2019-04-06T22:55:24.219Z,52.42
2019-04-06T22:57:53.330Z,52.50
2019-04-06T23:00:29.391Z,52.54
2019-04-06T23:03:15.947Z,52.57
2019-04-06T23:05:47.325Z,52.58
2019-04-06T23:08:15.828Z,52.59
2019-04-06T23:10:44.121Z,52.63
2019-04-06T23:13:12.315Z,52.64
2019-04-06T23:15:40.561Z,52.66
2019-04-06T23:18:08.705Z,52.69
2019-04-06T23:20:36.824Z,52.72
2019-04-06T23:23:04.975Z,52.76
2019-04-06T23:25:34.900Z,52.81
2019-04-06T23:28:03.658Z,52.85
2019-04-06T23:30:31.841Z,52.88
2019-04-06T23:32:59.960Z,52.92
2019-04-06T23:35:27.992Z,52.93
2019-04-06T23:37:56.235Z,52.98
2019-04-06T23:40:24.622Z,53.02
2019-04-06T23:42:52.651Z,53.10
2019-04-06T23:45:20.781Z,53.17
2019-04-06T23:47:48.750Z,53.23
2019-04-06T23:50:17.006Z,53.30
2019-04-06T23:52:45.345Z,53.39
2019-04-06T23:55:13.493Z,53.45
2019-04-06T23:57:41.665Z,53.52
